sensor_id;sensor_type;location;lat;lon;timestamp;P1;durP1;ratioP1;P2;durP2;ratioP2
64667;SDS011;51077;42.716;23.344;2024-01-06T00:02:05;66.95;;;42.40;;
64667;SDS011;51077;42.716;23.344;2024-01-06T00:04:30;59.60;;;38.97;;
64667;SDS011;51077;42.716;23.344;2024-01-06T00:06:55;60.10;;;39.07;;
64667;SDS011;51077;42.716;23.344;2024-01-06T00:09:21;59.07;;;40.07;;
64667;SDS011;51077;42.716;23.344;2024-01-06T00:11:46;63.20;;;39.17;;
64667;SDS011;51077;42.716;23.344;2024-01-06T00:14:12;58.13;;;37.87;;
64667;SDS011;51077;42.716;23.344;2024-01-06T00:16:37;58.00;;;37.13;;
64667;SDS011;51077;42.716;23.344;2024-01-06T00:19:02;61.60;;;38.50;;
64667;SDS011;51077;42.716;23.344;2024-01-06T00:21:28;59.60;;;38.13;;
64667;SDS011;51077;42.716;23.344;2024-01-06T00:23:53;66.20;;;39.33;;
64667;SDS011;51077;42.716;23.344;2024-01-06T00:26:21;61.10;;;39.22;;
64667;SDS011;51077;42.716;23.344;2024-01-06T00:28:46;61.63;;;37.90;;
64667;SDS011;51077;42.716;23.344;2024-01-06T00:31:14;56.88;;;36.97;;
64667;SDS011;51077;42.716;23.344;2024-01-06T00:33:41;59.13;;;38.10;;
64667;SDS011;51077;42.716;23.344;2024-01-06T00:36:06;58.87;;;38.17;;
64667;SDS011;51077;42.716;23.344;2024-01-06T00:38:32;57.17;;;36.70;;
64667;SDS011;51077;42.716;23.344;2024-01-06T00:40:58;56.93;;;35.57;;
64667;SDS011;51077;42.716;23.344;2024-01-06T00:43:23;55.83;;;36.33;;
64667;SDS011;51077;42.716;23.344;2024-01-06T00:45:49;54.07;;;35.63;;
64667;SDS011;51077;42.716;23.344;2024-01-06T00:48:14;54.20;;;35.83;;
64667;SDS011;51077;42.716;23.344;2024-01-06T00:50:39;54.63;;;34.87;;
64667;SDS011;51077;42.716;23.344;2024-01-06T00:53:05;54.33;;;36.03;;
64667;SDS011;51077;42.716;23.344;2024-01-06T00:55:31;54.70;;;34.80;;
64667;SDS011;51077;42.716;23.344;2024-01-06T00:57:56;55.03;;;35.00;;
64667;SDS011;51077;42.716;23.344;2024-01-06T01:00:21;54.53;;;34.73;;
64667;SDS011;51077;42.716;23.344;2024-01-06T01:02:48;55.67;;;34.25;;
64667;SDS011;51077;42.716;23.344;2024-01-06T01:05:13;59.70;;;35.07;;
64667;SDS011;51077;42.716;23.344;2024-01-06T01:07:38;48.67;;;32.67;;
64667;SDS011;51077;42.716;23.344;2024-01-06T01:10:04;60.60;;;34.10;;
64667;SDS011;51077;42.716;23.344;2024-01-06T01:12:30;52.63;;;33.22;;
64667;SDS011;51077;42.716;23.344;2024-01-06T01:14:56;48.00;;;32.67;;
64667;SDS011;51077;42.716;23.344;2024-01-06T01:17:22;48.23;;;31.60;;
64667;SDS011;51077;42.716;23.344;2024-01-06T01:19:47;49.90;;;30.60;;
64667;SDS011;51077;42.716;23.344;2024-01-06T01:22:13;49.93;;;31.83;;
64667;SDS011;51077;42.716;23.344;2024-01-06T01:24:39;50.40;;;30.88;;
64667;SDS011;51077;42.716;23.344;2024-01-06T01:27:04;52.47;;;31.93;;
64667;SDS011;51077;42.716;23.344;2024-01-06T01:29:30;49.37;;;32.13;;
64667;SDS011;51077;42.716;23.344;2024-01-06T01:31:55;51.10;;;31.17;;
64667;SDS011;51077;42.716;23.344;2024-01-06T01:34:21;51.20;;;30.73;;
64667;SDS011;51077;42.716;23.344;2024-01-06T01:36:46;50.87;;;31.40;;
64667;SDS011;51077;42.716;23.344;2024-01-06T01:39:11;49.37;;;30.03;;
64667;SDS011;51077;42.716;23.344;2024-01-06T01:41:37;49.17;;;30.30;;
64667;SDS011;51077;42.716;23.344;2024-01-06T01:44:02;47.43;;;31.63;;
64667;SDS011;51077;42.716;23.344;2024-01-06T01:46:28;51.53;;;31.17;;
64667;SDS011;51077;42.716;23.344;2024-01-06T01:48:56;47.30;;;30.58;;
64667;SDS011;51077;42.716;23.344;2024-01-06T01:51:23;48.08;;;30.05;;
64667;SDS011;51077;42.716;23.344;2024-01-06T01:53:54;42.78;;;28.98;;
64667;SDS011;51077;42.716;23.344;2024-01-06T01:56:21;53.00;;;31.73;;
64667;SDS011;51077;42.716;23.344;2024-01-06T01:58:47;47.77;;;30.97;;
64667;SDS011;51077;42.716;23.344;2024-01-06T02:01:13;53.23;;;31.70;;
64667;SDS011;51077;42.716;23.344;2024-01-06T02:03:40;49.88;;;32.17;;
64667;SDS011;51077;42.716;23.344;2024-01-06T02:06:08;50.38;;;32.15;;
64667;SDS011;51077;42.716;23.344;2024-01-06T02:08:34;50.00;;;31.27;;
64667;SDS011;51077;42.716;23.344;2024-01-06T02:11:00;46.73;;;31.13;;
64667;SDS011;51077;42.716;23.344;2024-01-06T02:13:32;52.57;;;32.33;;
64667;SDS011;51077;42.716;23.344;2024-01-06T02:16:04;56.70;;;36.03;;
64667;SDS011;51077;42.716;23.344;2024-01-06T02:18:31;62.63;;;35.55;;
64667;SDS011;51077;42.716;23.344;2024-01-06T02:20:58;62.22;;;36.70;;
64667;SDS011;51077;42.716;23.344;2024-01-06T02:23:24;66.10;;;39.45;;
64667;SDS011;51077;42.716;23.344;2024-01-06T02:25:49;64.77;;;38.00;;
64667;SDS011;51077;42.716;23.344;2024-01-06T02:28:15;66.47;;;38.87;;
64667;SDS011;51077;42.716;23.344;2024-01-06T02:30:40;69.90;;;40.20;;
64667;SDS011;51077;42.716;23.344;2024-01-06T02:33:05;67.50;;;40.63;;
64667;SDS011;51077;42.716;23.344;2024-01-06T02:35:31;64.23;;;39.50;;
64667;SDS011;51077;42.716;23.344;2024-01-06T02:37:56;72.57;;;40.57;;
64667;SDS011;51077;42.716;23.344;2024-01-06T02:40:22;64.47;;;40.70;;
64667;SDS011;51077;42.716;23.344;2024-01-06T02:42:47;67.37;;;40.53;;
64667;SDS011;51077;42.716;23.344;2024-01-06T02:45:12;67.80;;;40.33;;
64667;SDS011;51077;42.716;23.344;2024-01-06T02:47:38;63.87;;;39.73;;
64667;SDS011;51077;42.716;23.344;2024-01-06T02:50:03;66.10;;;38.60;;
64667;SDS011;51077;42.716;23.344;2024-01-06T02:52:30;60.45;;;38.78;;
64667;SDS011;51077;42.716;23.344;2024-01-06T02:54:55;65.27;;;39.30;;
64667;SDS011;51077;42.716;23.344;2024-01-06T02:57:20;62.63;;;39.00;;
64667;SDS011;51077;42.716;23.344;2024-01-06T02:59:46;64.93;;;38.87;;
64667;SDS011;51077;42.716;23.344;2024-01-06T03:02:11;64.13;;;36.90;;
64667;SDS011;51077;42.716;23.344;2024-01-06T03:04:36;56.47;;;36.17;;
64667;SDS011;51077;42.716;23.344;2024-01-06T03:07:02;65.23;;;36.77;;
64667;SDS011;51077;42.716;23.344;2024-01-06T03:09:27;63.33;;;38.07;;
64667;SDS011;51077;42.716;23.344;2024-01-06T03:11:53;58.43;;;39.10;;
64667;SDS011;51077;42.716;23.344;2024-01-06T03:14:18;58.90;;;35.67;;
64667;SDS011;51077;42.716;23.344;2024-01-06T03:16:43;60.43;;;36.73;;
64667;SDS011;51077;42.716;23.344;2024-01-06T03:19:09;64.27;;;37.33;;
64667;SDS011;51077;42.716;23.344;2024-01-06T03:21:34;59.97;;;36.40;;
64667;SDS011;51077;42.716;23.344;2024-01-06T03:23:59;56.40;;;37.17;;
64667;SDS011;51077;42.716;23.344;2024-01-06T03:26:25;57.33;;;36.13;;
64667;SDS011;51077;42.716;23.344;2024-01-06T03:28:50;61.20;;;37.73;;
64667;SDS011;51077;42.716;23.344;2024-01-06T03:31:16;57.83;;;35.50;;
64667;SDS011;51077;42.716;23.344;2024-01-06T03:33:42;66.07;;;38.30;;
64667;SDS011;51077;42.716;23.344;2024-01-06T03:36:08;54.70;;;35.55;;
64667;SDS011;51077;42.716;23.344;2024-01-06T03:38:34;59.00;;;37.70;;
64667;SDS011;51077;42.716;23.344;2024-01-06T03:41:00;62.90;;;38.40;;
64667;SDS011;51077;42.716;23.344;2024-01-06T03:43:25;55.30;;;36.33;;
64667;SDS011;51077;42.716;23.344;2024-01-06T03:45:51;60.70;;;36.07;;
64667;SDS011;51077;42.716;23.344;2024-01-06T03:48:16;56.27;;;35.57;;
64667;SDS011;51077;42.716;23.344;2024-01-06T03:50:42;57.33;;;36.73;;
64667;SDS011;51077;42.716;23.344;2024-01-06T03:53:07;58.23;;;36.80;;
64667;SDS011;51077;42.716;23.344;2024-01-06T03:55:32;55.87;;;35.87;;
64667;SDS011;51077;42.716;23.344;2024-01-06T03:57:58;55.43;;;35.43;;
64667;SDS011;51077;42.716;23.344;2024-01-06T04:00:24;59.30;;;38.73;;
64667;SDS011;51077;42.716;23.344;2024-01-06T04:02:50;57.25;;;36.45;;
64667;SDS011;51077;42.716;23.344;2024-01-06T04:05:16;55.80;;;36.90;;
64667;SDS011;51077;42.716;23.344;2024-01-06T04:07:41;59.53;;;37.63;;
64667;SDS011;51077;42.716;23.344;2024-01-06T04:10:07;55.37;;;36.43;;
64667;SDS011;51077;42.716;23.344;2024-01-06T04:12:32;60.83;;;36.97;;
64667;SDS011;51077;42.716;23.344;2024-01-06T04:14:58;55.00;;;36.50;;
64667;SDS011;51077;42.716;23.344;2024-01-06T04:17:23;60.47;;;37.97;;
64667;SDS011;51077;42.716;23.344;2024-01-06T04:19:51;58.28;;;38.05;;
64667;SDS011;51077;42.716;23.344;2024-01-06T04:22:16;61.07;;;38.67;;
64667;SDS011;51077;42.716;23.344;2024-01-06T04:24:41;57.30;;;36.80;;
64667;SDS011;51077;42.716;23.344;2024-01-06T04:27:07;59.27;;;37.90;;
64667;SDS011;51077;42.716;23.344;2024-01-06T04:29:33;57.00;;;36.90;;
64667;SDS011;51077;42.716;23.344;2024-01-06T04:31:58;57.93;;;37.77;;
64667;SDS011;51077;42.716;23.344;2024-01-06T04:34:23;54.63;;;36.13;;
64667;SDS011;51077;42.716;23.344;2024-01-06T04:36:49;54.43;;;35.07;;
64667;SDS011;51077;42.716;23.344;2024-01-06T04:39:15;60.43;;;35.90;;
64667;SDS011;51077;42.716;23.344;2024-01-06T04:41:40;61.87;;;36.73;;
64667;SDS011;51077;42.716;23.344;2024-01-06T04:44:05;52.37;;;34.13;;
64667;SDS011;51077;42.716;23.344;2024-01-06T04:46:31;52.10;;;34.03;;
64667;SDS011;51077;42.716;23.344;2024-01-06T04:48:56;50.03;;;32.97;;
64667;SDS011;51077;42.716;23.344;2024-01-06T04:51:22;50.50;;;32.67;;
64667;SDS011;51077;42.716;23.344;2024-01-06T04:53:47;47.83;;;32.80;;
64667;SDS011;51077;42.716;23.344;2024-01-06T04:56:13;50.90;;;31.93;;
64667;SDS011;51077;42.716;23.344;2024-01-06T04:58:38;49.30;;;31.80;;
64667;SDS011;51077;42.716;23.344;2024-01-06T05:01:04;47.70;;;30.57;;
64667;SDS011;51077;42.716;23.344;2024-01-06T05:03:30;48.42;;;31.60;;
64667;SDS011;51077;42.716;23.344;2024-01-06T05:05:55;49.87;;;32.23;;
64667;SDS011;51077;42.716;23.344;2024-01-06T05:08:21;47.90;;;31.83;;
64667;SDS011;51077;42.716;23.344;2024-01-06T05:10:48;52.72;;;32.65;;
64667;SDS011;51077;42.716;23.344;2024-01-06T05:13:13;48.70;;;32.13;;
64667;SDS011;51077;42.716;23.344;2024-01-06T05:15:39;47.00;;;30.30;;
64667;SDS011;51077;42.716;23.344;2024-01-06T05:18:05;47.13;;;30.87;;
64667;SDS011;51077;42.716;23.344;2024-01-06T05:20:30;49.70;;;31.90;;
64667;SDS011;51077;42.716;23.344;2024-01-06T05:22:56;49.27;;;30.93;;
64667;SDS011;51077;42.716;23.344;2024-01-06T05:25:21;50.13;;;31.87;;
64667;SDS011;51077;42.716;23.344;2024-01-06T05:27:46;46.97;;;29.27;;
64667;SDS011;51077;42.716;23.344;2024-01-06T05:30:12;46.27;;;31.07;;
64667;SDS011;51077;42.716;23.344;2024-01-06T05:32:37;49.40;;;31.77;;
64667;SDS011;51077;42.716;23.344;2024-01-06T05:35:03;44.63;;;29.57;;
64667;SDS011;51077;42.716;23.344;2024-01-06T05:37:29;45.90;;;28.90;;
64667;SDS011;51077;42.716;23.344;2024-01-06T05:39:55;43.87;;;29.27;;
64667;SDS011;51077;42.716;23.344;2024-01-06T05:42:20;46.42;;;29.20;;
64667;SDS011;51077;42.716;23.344;2024-01-06T05:44:46;47.83;;;29.63;;
64667;SDS011;51077;42.716;23.344;2024-01-06T05:47:11;43.43;;;29.50;;
64667;SDS011;51077;42.716;23.344;2024-01-06T05:49:41;47.80;;;30.23;;
64667;SDS011;51077;42.716;23.344;2024-01-06T05:52:08;47.78;;;30.10;;
64667;SDS011;51077;42.716;23.344;2024-01-06T05:54:33;50.30;;;32.53;;
64667;SDS011;51077;42.716;23.344;2024-01-06T05:56:59;50.57;;;31.47;;
64667;SDS011;51077;42.716;23.344;2024-01-06T05:59:25;44.42;;;30.38;;
64667;SDS011;51077;42.716;23.344;2024-01-06T06:01:50;47.77;;;30.33;;
64667;SDS011;51077;42.716;23.344;2024-01-06T06:04:15;46.73;;;30.23;;
64667;SDS011;51077;42.716;23.344;2024-01-06T06:06:41;45.80;;;30.50;;
64667;SDS011;51077;42.716;23.344;2024-01-06T06:09:06;54.07;;;34.73;;
64667;SDS011;51077;42.716;23.344;2024-01-06T06:11:32;53.03;;;34.70;;
64667;SDS011;51077;42.716;23.344;2024-01-06T06:13:58;55.15;;;35.53;;
64667;SDS011;51077;42.716;23.344;2024-01-06T06:16:24;53.10;;;33.67;;
64667;SDS011;51077;42.716;23.344;2024-01-06T06:18:49;55.10;;;35.93;;
64667;SDS011;51077;42.716;23.344;2024-01-06T06:21:15;48.80;;;33.73;;
64667;SDS011;51077;42.716;23.344;2024-01-06T06:23:41;51.00;;;34.80;;
64667;SDS011;51077;42.716;23.344;2024-01-06T06:26:06;51.83;;;33.67;;
64667;SDS011;51077;42.716;23.344;2024-01-06T06:28:33;50.20;;;32.65;;
64667;SDS011;51077;42.716;23.344;2024-01-06T06:30:59;52.92;;;33.60;;
64667;SDS011;51077;42.716;23.344;2024-01-06T06:33:25;53.88;;;34.47;;
64667;SDS011;51077;42.716;23.344;2024-01-06T06:35:50;52.03;;;32.97;;
64667;SDS011;51077;42.716;23.344;2024-01-06T06:38:16;51.37;;;35.13;;
64667;SDS011;51077;42.716;23.344;2024-01-06T06:40:41;51.23;;;32.83;;
64667;SDS011;51077;42.716;23.344;2024-01-06T06:43:07;55.37;;;35.60;;
64667;SDS011;51077;42.716;23.344;2024-01-06T06:45:33;54.13;;;36.50;;
64667;SDS011;51077;42.716;23.344;2024-01-06T06:47:59;55.27;;;37.23;;
64667;SDS011;51077;42.716;23.344;2024-01-06T06:50:24;53.87;;;35.07;;
64667;SDS011;51077;42.716;23.344;2024-01-06T06:52:49;60.30;;;38.97;;
64667;SDS011;51077;42.716;23.344;2024-01-06T06:55:15;54.20;;;36.87;;
64667;SDS011;51077;42.716;23.344;2024-01-06T06:57:41;57.83;;;38.30;;
64667;SDS011;51077;42.716;23.344;2024-01-06T07:00:06;60.97;;;38.53;;
64667;SDS011;51077;42.716;23.344;2024-01-06T07:02:35;55.13;;;37.05;;
64667;SDS011;51077;42.716;23.344;2024-01-06T07:05:00;55.37;;;36.87;;
64667;SDS011;51077;42.716;23.344;2024-01-06T07:07:26;50.37;;;35.50;;
64667;SDS011;51077;42.716;23.344;2024-01-06T07:09:52;51.37;;;33.83;;
64667;SDS011;51077;42.716;23.344;2024-01-06T07:12:19;53.08;;;35.30;;
64667;SDS011;51077;42.716;23.344;2024-01-06T07:14:44;57.10;;;36.07;;
64667;SDS011;51077;42.716;23.344;2024-01-06T07:17:09;58.13;;;35.53;;
64667;SDS011;51077;42.716;23.344;2024-01-06T07:19:35;55.70;;;36.73;;
64667;SDS011;51077;42.716;23.344;2024-01-06T07:22:00;55.77;;;36.80;;
64667;SDS011;51077;42.716;23.344;2024-01-06T07:24:26;53.07;;;36.63;;
64667;SDS011;51077;42.716;23.344;2024-01-06T07:26:52;62.33;;;38.43;;
64667;SDS011;51077;42.716;23.344;2024-01-06T07:29:17;57.38;;;38.80;;
64667;SDS011;51077;42.716;23.344;2024-01-06T07:31:43;61.97;;;39.72;;
64667;SDS011;51077;42.716;23.344;2024-01-06T07:34:09;64.97;;;42.30;;
64667;SDS011;51077;42.716;23.344;2024-01-06T07:36:34;67.43;;;40.90;;
64667;SDS011;51077;42.716;23.344;2024-01-06T07:39:00;74.60;;;43.57;;
64667;SDS011;51077;42.716;23.344;2024-01-06T07:41:25;67.90;;;43.40;;
64667;SDS011;51077;42.716;23.344;2024-01-06T07:43:50;65.93;;;43.97;;
64667;SDS011;51077;42.716;23.344;2024-01-06T07:46:16;66.32;;;44.00;;
64667;SDS011;51077;42.716;23.344;2024-01-06T07:48:42;61.57;;;40.80;;
64667;SDS011;51077;42.716;23.344;2024-01-06T07:51:07;64.27;;;41.83;;
64667;SDS011;51077;42.716;23.344;2024-01-06T07:53:33;63.73;;;40.67;;
64667;SDS011;51077;42.716;23.344;2024-01-06T07:55:58;58.23;;;38.50;;
64667;SDS011;51077;42.716;23.344;2024-01-06T07:58:23;58.67;;;39.17;;
64667;SDS011;51077;42.716;23.344;2024-01-06T08:00:52;57.53;;;39.20;;
64667;SDS011;51077;42.716;23.344;2024-01-06T08:03:18;55.33;;;38.40;;
64667;SDS011;51077;42.716;23.344;2024-01-06T08:05:43;58.57;;;38.30;;
64667;SDS011;51077;42.716;23.344;2024-01-06T08:08:09;56.00;;;36.63;;
64667;SDS011;51077;42.716;23.344;2024-01-06T08:10:34;55.43;;;36.40;;
64667;SDS011;51077;42.716;23.344;2024-01-06T08:12:59;51.20;;;36.87;;
64667;SDS011;51077;42.716;23.344;2024-01-06T08:15:25;57.27;;;36.93;;
64667;SDS011;51077;42.716;23.344;2024-01-06T08:17:50;53.90;;;37.57;;
64667;SDS011;51077;42.716;23.344;2024-01-06T08:20:15;55.00;;;37.90;;
64667;SDS011;51077;42.716;23.344;2024-01-06T08:22:41;53.50;;;36.60;;
64667;SDS011;51077;42.716;23.344;2024-01-06T08:25:06;54.30;;;36.53;;
64667;SDS011;51077;42.716;23.344;2024-01-06T08:27:32;55.85;;;35.47;;
64667;SDS011;51077;42.716;23.344;2024-01-06T08:29:58;49.57;;;33.63;;
64667;SDS011;51077;42.716;23.344;2024-01-06T08:32:23;54.07;;;34.93;;
64667;SDS011;51077;42.716;23.344;2024-01-06T08:34:49;47.93;;;33.30;;
64667;SDS011;51077;42.716;23.344;2024-01-06T08:37:14;46.33;;;31.20;;
64667;SDS011;51077;42.716;23.344;2024-01-06T08:39:40;46.43;;;30.40;;
64667;SDS011;51077;42.716;23.344;2024-01-06T08:42:06;42.67;;;30.30;;
64667;SDS011;51077;42.716;23.344;2024-01-06T08:44:31;45.28;;;30.65;;
64667;SDS011;51077;42.716;23.344;2024-01-06T08:46:57;42.43;;;29.13;;
64667;SDS011;51077;42.716;23.344;2024-01-06T08:49:22;42.23;;;29.77;;
64667;SDS011;51077;42.716;23.344;2024-01-06T08:51:48;44.47;;;29.27;;
64667;SDS011;51077;42.716;23.344;2024-01-06T08:54:13;39.83;;;27.33;;
64667;SDS011;51077;42.716;23.344;2024-01-06T08:56:38;37.07;;;25.67;;
64667;SDS011;51077;42.716;23.344;2024-01-06T08:59:04;36.83;;;26.63;;
64667;SDS011;51077;42.716;23.344;2024-01-06T09:01:29;37.07;;;26.17;;
64667;SDS011;51077;42.716;23.344;2024-01-06T09:03:56;35.70;;;23.73;;
64667;SDS011;51077;42.716;23.344;2024-01-06T09:06:22;32.17;;;24.25;;
64667;SDS011;51077;42.716;23.344;2024-01-06T09:08:48;33.13;;;23.17;;
64667;SDS011;51077;42.716;23.344;2024-01-06T09:11:13;35.77;;;24.17;;
64667;SDS011;51077;42.716;23.344;2024-01-06T09:13:39;36.00;;;22.93;;
64667;SDS011;51077;42.716;23.344;2024-01-06T09:16:04;34.37;;;22.17;;
64667;SDS011;51077;42.716;23.344;2024-01-06T09:18:30;32.10;;;22.40;;
64667;SDS011;51077;42.716;23.344;2024-01-06T09:20:55;32.57;;;21.67;;
64667;SDS011;51077;42.716;23.344;2024-01-06T09:23:22;34.27;;;20.93;;
64667;SDS011;51077;42.716;23.344;2024-01-06T09:25:47;33.42;;;20.98;;
64667;SDS011;51077;42.716;23.344;2024-01-06T09:28:15;30.80;;;20.77;;
64667;SDS011;51077;42.716;23.344;2024-01-06T09:30:40;29.50;;;20.65;;
64667;SDS011;51077;42.716;23.344;2024-01-06T09:33:06;29.33;;;20.77;;
64667;SDS011;51077;42.716;23.344;2024-01-06T09:35:33;27.83;;;19.10;;
64667;SDS011;51077;42.716;23.344;2024-01-06T09:37:58;28.03;;;19.50;;
64667;SDS011;51077;42.716;23.344;2024-01-06T09:40:24;24.83;;;17.90;;
64667;SDS011;51077;42.716;23.344;2024-01-06T09:42:50;28.17;;;17.70;;
64667;SDS011;51077;42.716;23.344;2024-01-06T09:45:16;26.08;;;17.77;;
64667;SDS011;51077;42.716;23.344;2024-01-06T09:47:42;28.13;;;17.80;;
64667;SDS011;51077;42.716;23.344;2024-01-06T09:50:12;27.13;;;18.50;;
64667;SDS011;51077;42.716;23.344;2024-01-06T09:52:39;25.40;;;17.80;;
64667;SDS011;51077;42.716;23.344;2024-01-06T09:55:12;27.20;;;18.25;;
64667;SDS011;51077;42.716;23.344;2024-01-06T09:57:37;29.25;;;17.40;;
64667;SDS011;51077;42.716;23.344;2024-01-06T10:00:04;23.65;;;16.58;;
64667;SDS011;51077;42.716;23.344;2024-01-06T10:02:30;22.45;;;16.05;;
64667;SDS011;51077;42.716;23.344;2024-01-06T10:04:59;23.92;;;15.38;;
64667;SDS011;51077;42.716;23.344;2024-01-06T10:07:25;23.60;;;16.33;;
64667;SDS011;51077;42.716;23.344;2024-01-06T10:09:51;22.58;;;14.90;;
64667;SDS011;51077;42.716;23.344;2024-01-06T10:12:23;24.10;;;14.48;;
64667;SDS011;51077;42.716;23.344;2024-01-06T10:14:50;20.08;;;14.45;;
64667;SDS011;51077;42.716;23.344;2024-01-06T10:17:18;22.60;;;13.73;;
64667;SDS011;51077;42.716;23.344;2024-01-06T10:19:47;19.37;;;13.03;;
64667;SDS011;51077;42.716;23.344;2024-01-06T10:22:13;20.25;;;12.57;;
64667;SDS011;51077;42.716;23.344;2024-01-06T10:24:39;20.90;;;12.23;;
64667;SDS011;51077;42.716;23.344;2024-01-06T10:27:05;20.58;;;12.63;;
64667;SDS011;51077;42.716;23.344;2024-01-06T10:29:31;19.00;;;12.75;;
64667;SDS011;51077;42.716;23.344;2024-01-06T10:31:57;19.45;;;12.45;;
64667;SDS011;51077;42.716;23.344;2024-01-06T10:34:23;22.45;;;12.32;;
64667;SDS011;51077;42.716;23.344;2024-01-06T10:36:49;18.47;;;12.10;;
64667;SDS011;51077;42.716;23.344;2024-01-06T10:39:17;18.83;;;12.68;;
64667;SDS011;51077;42.716;23.344;2024-01-06T10:41:43;21.00;;;11.85;;
64667;SDS011;51077;42.716;23.344;2024-01-06T10:44:09;17.33;;;11.25;;
64667;SDS011;51077;42.716;23.344;2024-01-06T10:46:36;17.60;;;11.98;;
64667;SDS011;51077;42.716;23.344;2024-01-06T10:49:04;18.17;;;11.63;;
64667;SDS011;51077;42.716;23.344;2024-01-06T10:51:33;16.95;;;11.40;;
64667;SDS011;51077;42.716;23.344;2024-01-06T10:54:00;17.83;;;11.90;;
64667;SDS011;51077;42.716;23.344;2024-01-06T10:56:26;19.88;;;11.80;;
64667;SDS011;51077;42.716;23.344;2024-01-06T10:58:53;18.43;;;10.63;;
64667;SDS011;51077;42.716;23.344;2024-01-06T11:01:20;19.23;;;11.38;;
64667;SDS011;51077;42.716;23.344;2024-01-06T11:03:46;19.85;;;11.05;;
64667;SDS011;51077;42.716;23.344;2024-01-06T11:06:13;18.38;;;11.15;;
64667;SDS011;51077;42.716;23.344;2024-01-06T11:08:44;17.25;;;11.55;;
64667;SDS011;51077;42.716;23.344;2024-01-06T11:11:18;20.17;;;11.20;;
64667;SDS011;51077;42.716;23.344;2024-01-06T11:13:45;19.77;;;11.50;;
64667;SDS011;51077;42.716;23.344;2024-01-06T11:16:26;16.42;;;10.95;;
64667;SDS011;51077;42.716;23.344;2024-01-06T11:19:00;19.00;;;11.32;;
64667;SDS011;51077;42.716;23.344;2024-01-06T11:21:26;19.80;;;11.20;;
64667;SDS011;51077;42.716;23.344;2024-01-06T11:26:44;18.45;;;10.00;;
64667;SDS011;51077;42.716;23.344;2024-01-06T11:29:14;20.95;;;10.80;;
64667;SDS011;51077;42.716;23.344;2024-01-06T11:31:39;16.50;;;9.83;;
64667;SDS011;51077;42.716;23.344;2024-01-06T11:34:17;16.13;;;10.93;;
64667;SDS011;51077;42.716;23.344;2024-01-06T11:36:44;18.25;;;9.75;;
64667;SDS011;51077;42.716;23.344;2024-01-06T11:42:03;15.38;;;10.38;;
64667;SDS011;51077;42.716;23.344;2024-01-06T11:44:29;16.43;;;10.87;;
64667;SDS011;51077;42.716;23.344;2024-01-06T11:46:58;15.45;;;9.63;;
64667;SDS011;51077;42.716;23.344;2024-01-06T11:49:26;15.80;;;9.90;;
64667;SDS011;51077;42.716;23.344;2024-01-06T11:51:55;16.17;;;9.80;;
64667;SDS011;51077;42.716;23.344;2024-01-06T11:54:21;19.23;;;9.55;;
64667;SDS011;51077;42.716;23.344;2024-01-06T11:56:47;14.87;;;9.57;;
64667;SDS011;51077;42.716;23.344;2024-01-06T11:59:13;19.05;;;10.55;;
64667;SDS011;51077;42.716;23.344;2024-01-06T12:01:39;14.87;;;10.33;;
64667;SDS011;51077;42.716;23.344;2024-01-06T12:04:05;13.70;;;9.03;;
64667;SDS011;51077;42.716;23.344;2024-01-06T12:06:31;13.77;;;8.87;;
64667;SDS011;51077;42.716;23.344;2024-01-06T12:09:06;16.40;;;8.13;;
64667;SDS011;51077;42.716;23.344;2024-01-06T12:11:33;13.68;;;8.85;;
64667;SDS011;51077;42.716;23.344;2024-01-06T12:13:58;13.43;;;8.60;;
64667;SDS011;51077;42.716;23.344;2024-01-06T12:16:24;13.83;;;8.57;;
64667;SDS011;51077;42.716;23.344;2024-01-06T12:18:53;14.45;;;8.82;;
64667;SDS011;51077;42.716;23.344;2024-01-06T12:21:23;17.63;;;9.52;;
64667;SDS011;51077;42.716;23.344;2024-01-06T12:23:48;18.23;;;11.15;;
64667;SDS011;51077;42.716;23.344;2024-01-06T12:26:14;18.47;;;10.50;;
64667;SDS011;51077;42.716;23.344;2024-01-06T12:28:41;16.55;;;10.00;;
64667;SDS011;51077;42.716;23.344;2024-01-06T12:31:09;17.75;;;9.95;;
64667;SDS011;51077;42.716;23.344;2024-01-06T12:33:37;16.45;;;10.38;;
64667;SDS011;51077;42.716;23.344;2024-01-06T12:36:04;17.33;;;9.75;;
64667;SDS011;51077;42.716;23.344;2024-01-06T12:38:31;15.98;;;9.38;;
64667;SDS011;51077;42.716;23.344;2024-01-06T12:40:56;17.93;;;10.17;;
64667;SDS011;51077;42.716;23.344;2024-01-06T12:43:22;17.63;;;10.73;;
64667;SDS011;51077;42.716;23.344;2024-01-06T12:45:47;17.87;;;10.53;;
64667;SDS011;51077;42.716;23.344;2024-01-06T12:48:14;16.73;;;10.15;;
64667;SDS011;51077;42.716;23.344;2024-01-06T12:50:39;16.27;;;9.70;;
64667;SDS011;51077;42.716;23.344;2024-01-06T12:53:04;20.03;;;9.20;;
64667;SDS011;51077;42.716;23.344;2024-01-06T12:55:30;17.07;;;9.60;;
64667;SDS011;51077;42.716;23.344;2024-01-06T12:57:55;17.27;;;9.30;;
64667;SDS011;51077;42.716;23.344;2024-01-06T13:00:21;15.70;;;8.57;;
64667;SDS011;51077;42.716;23.344;2024-01-06T13:02:46;14.77;;;9.53;;
64667;SDS011;51077;42.716;23.344;2024-01-06T13:05:11;16.20;;;9.60;;
64667;SDS011;51077;42.716;23.344;2024-01-06T13:07:38;12.47;;;9.07;;
64667;SDS011;51077;42.716;23.344;2024-01-06T13:10:04;18.30;;;9.77;;
64667;SDS011;51077;42.716;23.344;2024-01-06T13:12:30;14.70;;;9.40;;
64667;SDS011;51077;42.716;23.344;2024-01-06T13:14:55;14.70;;;8.60;;
64667;SDS011;51077;42.716;23.344;2024-01-06T13:17:21;14.13;;;8.57;;
64667;SDS011;51077;42.716;23.344;2024-01-06T13:19:46;16.10;;;9.93;;
64667;SDS011;51077;42.716;23.344;2024-01-06T13:22:12;13.97;;;8.23;;
64667;SDS011;51077;42.716;23.344;2024-01-06T13:24:38;15.63;;;8.65;;
64667;SDS011;51077;42.716;23.344;2024-01-06T13:27:05;15.48;;;9.15;;
64667;SDS011;51077;42.716;23.344;2024-01-06T13:29:31;14.47;;;9.13;;
64667;SDS011;51077;42.716;23.344;2024-01-06T13:31:57;14.13;;;9.00;;
64667;SDS011;51077;42.716;23.344;2024-01-06T13:34:24;12.20;;;8.82;;
64667;SDS011;51077;42.716;23.344;2024-01-06T13:36:49;12.57;;;8.37;;
64667;SDS011;51077;42.716;23.344;2024-01-06T13:39:15;14.73;;;8.70;;
64667;SDS011;51077;42.716;23.344;2024-01-06T13:41:46;15.63;;;9.40;;
64667;SDS011;51077;42.716;23.344;2024-01-06T13:44:12;14.27;;;10.23;;
64667;SDS011;51077;42.716;23.344;2024-01-06T13:46:39;18.00;;;9.43;;
64667;SDS011;51077;42.716;23.344;2024-01-06T13:49:06;14.30;;;9.48;;
64667;SDS011;51077;42.716;23.344;2024-01-06T13:51:31;12.53;;;9.07;;
64667;SDS011;51077;42.716;23.344;2024-01-06T13:53:57;13.10;;;9.52;;
64667;SDS011;51077;42.716;23.344;2024-01-06T13:56:23;12.80;;;9.00;;
64667;SDS011;51077;42.716;23.344;2024-01-06T13:58:48;12.87;;;9.13;;
64667;SDS011;51077;42.716;23.344;2024-01-06T14:01:16;13.10;;;9.05;;
64667;SDS011;51077;42.716;23.344;2024-01-06T14:03:41;14.10;;;9.87;;
64667;SDS011;51077;42.716;23.344;2024-01-06T14:06:07;14.87;;;9.93;;
64667;SDS011;51077;42.716;23.344;2024-01-06T14:08:32;17.10;;;10.33;;
64667;SDS011;51077;42.716;23.344;2024-01-06T14:10:58;16.13;;;10.73;;